Pleasant Valley, California
Current Conditions -  °F | °C
As of 5:35 AM on Sunday 21 Dec 2014 (Local Time) from KPVF Reporting Station
Overcast Overcast  
Wind Chill: 46°   Ceiling: 300
Heat Index: 48°   Visibility: 1mi
Dew Point: 48°   Wind: 6mph
Humidity: 100%   Direction: 140°SE
Pressure: 30.28"   Gusts: NA
Location:  38.7308°N, 120.774°W
Report Text: KPVF 211335Z AUTO 14005KT 1SM OVC003 09/09 A3028 RMK AO1 P0001
Loading
Personal Weather Stations






























Interactive Weather Map New forecast layout! Learn more

10-Day Weather Forecast

Advertisements
Track Severe Weather on mobile